Time;durP1;ratioP1;P1;durP2;ratioP2;P2;SDS_P1;SDS_P2;PMS_P1;PMS_P2;Temp;Humidity;BMP_temperature;BMP_pressure;BME280_temperature;BME280_humidity;BME280_pressure;Samples;Min_cycle;Max_cycle;Signal;HPM_P1;HPM_P2
2021/09/15 00:00:43;;;;;;;9.38;6.20;;;;;;;14.26;68.90;100477.69;1747181;80;21030;-70
2021/09/15 00:03:09;;;;;;;10.95;6.35;;;;;;;14.30;68.63;100479.59;1763088;80;21740;-70
2021/09/15 00:05:36;;;;;;;10.63;6.03;;;;;;;14.29;68.41;100480.08;1774957;80;20973;-71
2021/09/15 00:08:04;;;;;;;9.73;6.40;;;;;;;14.29;68.12;100478.75;1775118;80;21459;-71
2021/09/15 00:10:32;;;;;;;8.98;5.65;;;;;;;14.29;67.85;100485.40;1758078;80;20996;-71
2021/09/15 00:12:59;;;;;;;9.53;5.15;;;;;;;14.26;67.54;100479.51;1750734;79;20929;-72
2021/09/15 00:15:27;;;;;;;9.20;6.05;;;;;;;14.25;67.14;100484.48;1744351;82;20916;-71
2021/09/15 00:17:53;;;;;;;9.08;5.45;;;;;;;14.24;66.88;100488.95;1750882;80;21506;-72
2021/09/15 00:20:21;;;;;;;7.30;4.87;;;;;;;14.22;66.50;100480.79;1754897;80;21488;-71
2021/09/15 00:22:48;;;;;;;10.32;4.67;;;;;;;14.20;66.03;100486.73;1744321;82;21356;-71
2021/09/15 00:25:15;;;;;;;9.08;4.80;;;;;;;14.17;65.56;100484.34;1748602;80;20961;-71
2021/09/15 00:27:43;;;;;;;7.78;4.65;;;;;;;14.14;65.05;100480.16;1757944;80;21017;-73
2021/09/15 00:30:12;;;;;;;7.25;4.45;;;;;;;14.12;64.77;100482.62;1764530;80;20977;-72
2021/09/15 00:32:39;;;;;;;9.08;4.05;;;;;;;14.06;64.36;100488.00;1768610;80;20944;-72
2021/09/15 00:35:07;;;;;;;7.15;3.70;;;;;;;13.99;63.11;100481.56;1753141;80;20940;-72
2021/09/15 00:37:35;;;;;;;8.78;3.60;;;;;;;14.00;62.55;100483.27;1752421;82;20995;-72
2021/09/15 00:40:01;;;;;;;7.97;4.00;;;;;;;13.99;61.86;100492.19;1762269;80;22774;-72
2021/09/15 00:42:28;;;;;;;8.35;3.87;;;;;;;13.98;61.63;100490.52;1783271;80;20972;-72
2021/09/15 00:44:57;;;;;;;6.30;3.62;;;;;;;13.97;61.55;100495.48;1770253;80;20944;-72
2021/09/15 00:47:23;;;;;;;9.10;4.12;;;;;;;13.92;61.90;100493.75;1753519;80;21031;-72
2021/09/15 00:49:51;;;;;;;6.95;4.17;;;;;;;13.86;61.96;100496.47;1755517;80;21004;-72
2021/09/15 00:52:19;;;;;;;6.87;3.60;;;;;;;13.81;62.03;100495.23;1762243;80;22243;-72
2021/09/15 00:54:47;;;;;;;8.18;3.72;;;;;;;13.78;61.55;100494.16;1752698;80;20976;-72
2021/09/15 00:57:14;;;;;;;5.42;3.60;;;;;;;13.75;61.47;100489.48;1755299;80;21035;-72
2021/09/15 00:59:42;;;;;;;6.05;3.67;;;;;;;13.69;61.60;100496.66;1766149;80;21467;-72
2021/09/15 01:02:09;;;;;;;8.70;3.65;;;;;;;13.63;61.81;100493.25;1776700;80;21334;-72
2021/09/15 01:04:37;;;;;;;7.80;3.85;;;;;;;13.59;62.13;100493.66;1763949;80;22166;-72
2021/09/15 01:07:06;;;;;;;4.87;3.50;;;;;;;13.50;62.28;100496.64;1756480;80;20969;-72
2021/09/15 01:09:34;;;;;;;6.85;3.37;;;;;;;13.41;62.48;100493.48;1723316;82;20979;-72
2021/09/15 01:12:02;;;;;;;8.80;3.67;;;;;;;13.35;62.66;100502.02;1728265;82;21008;-72
2021/09/15 01:14:30;;;;;;;7.85;3.77;;;;;;;13.27;62.91;100501.36;1751836;80;21050;-72
2021/09/15 01:17:15;;;;;;;5.60;3.40;;;;;;;13.20;63.09;100504.19;1754809;80;21831;-72
2021/09/15 01:20:04;;;;;;;5.45;3.67;;;;;;;13.13;63.30;100499.91;1753099;80;20992;-72
2021/09/15 01:22:39;;;;;;;4.28;3.45;;;;;;;13.08;63.45;100503.44;1767835;80;20924;-72
2021/09/15 01:25:18;;;;;;;6.03;4.08;;;;;;;13.03;63.59;100503.02;1760242;80;20945;-72
2021/09/15 01:27:46;;;;;;;6.37;3.58;;;;;;;13.01;63.67;100502.77;1717360;80;20927;-72
2021/09/15 01:30:20;;;;;;;4.62;3.62;;;;;;;13.02;63.73;100499.98;1746235;80;21813;-71
2021/09/15 01:32:50;;;;;;;5.95;3.80;;;;;;;12.99;63.78;100502.08;1744329;81;21382;-71
2021/09/15 01:35:17;;;;;;;7.25;3.92;;;;;;;12.89;63.90;100504.69;1745218;80;20945;-71
2021/09/15 01:37:44;;;;;;;5.90;3.72;;;;;;;12.81;63.88;100501.37;1747494;80;20933;-72
2021/09/15 01:40:12;;;;;;;5.80;3.60;;;;;;;12.79;63.89;100502.00;1769793;80;21032;-71
2021/09/15 01:42:39;;;;;;;8.05;3.98;;;;;;;12.76;63.92;100503.59;1771114;80;22159;-71
2021/09/15 01:45:10;;;;;;;7.08;3.60;;;;;;;12.73;64.08;100504.33;1775941;80;20921;-71
2021/09/15 01:47:37;;;;;;;8.40;3.85;;;;;;;12.68;64.13;100512.69;1776175;80;20945;-71
2021/09/15 01:50:05;;;;;;;5.42;3.58;;;;;;;12.62;64.18;100510.55;1747000;80;21000;-71
2021/09/15 01:52:31;;;;;;;7.25;3.92;;;;;;;12.56;64.35;100511.94;1765087;80;21016;-71
2021/09/15 01:55:00;;;;;;;5.80;3.40;;;;;;;12.52;64.54;100505.69;1754403;80;21863;-72
2021/09/15 01:57:27;;;;;;;7.58;3.80;;;;;;;12.48;64.57;100507.77;1744813;80;21436;-72
2021/09/15 02:00:12;;;;;;;6.25;3.17;;;;;;;12.45;64.27;100512.02;1703543;83;21059;-72
2021/09/15 02:02:43;;;;;;;5.03;3.30;;;;;;;12.44;63.98;100510.31;1733528;82;21399;-71
2021/09/15 02:05:12;;;;;;;5.50;2.70;;;;;;;12.43;63.72;100518.39;1756456;80;21492;-70
2021/09/15 02:07:40;;;;;;;6.30;3.10;;;;;;;12.45;63.05;100512.47;1739436;82;21980;-70
2021/09/15 02:10:14;;;;;;;5.05;3.20;;;;;;;12.47;62.66;100514.05;1742111;80;21036;-71
2021/09/15 02:12:41;;;;;;;4.62;3.08;;;;;;;12.49;62.02;100514.75;1751632;80;20976;-71
2021/09/15 02:15:11;;;;;;;5.33;3.15;;;;;;;12.54;61.85;100519.16;1738745;80;20973;-72
2021/09/15 02:17:39;;;;;;;6.12;2.62;;;;;;;12.56;61.56;100513.75;1748241;80;21003;-72
2021/09/15 02:20:10;;;;;;;5.62;2.62;;;;;;;12.57;60.81;100516.27;1744519;80;21475;-71
2021/09/15 02:22:38;;;;;;;7.42;2.83;;;;;;;12.60;60.38;100512.50;1742806;80;21385;-71
2021/09/15 02:25:10;;;;;;;3.67;2.40;;;;;;;12.63;59.91;100520.18;1730499;80;21000;-70
2021/09/15 02:27:56;;;;;;;4.37;2.60;;;;;;;12.67;59.73;100527.41;1764476;80;21001;-70
2021/09/15 02:30:25;;;;;;;6.75;2.60;;;;;;;12.68;59.13;100529.91;1772812;80;20980;-70
2021/09/15 02:32:53;;;;;;;6.37;2.62;;;;;;;12.70;58.81;100531.10;1774478;80;21819;-70
2021/09/15 02:35:28;;;;;;;4.05;2.50;;;;;;;12.69;58.88;100526.78;1727461;80;21071;-71
2021/09/15 02:38:00;;;;;;;5.03;2.40;;;;;;;12.65;58.82;100526.21;1720989;80;21044;-71
2021/09/15 02:40:37;;;;;;;4.75;2.67;;;;;;;12.63;59.07;100523.31;1736408;82;20984;-71
2021/09/15 02:43:05;;;;;;;4.47;2.60;;;;;;;12.54;59.08;100523.12;1724905;82;20973;-71
2021/09/15 02:45:35;;;;;;;4.83;2.77;;;;;;;12.51;59.08;100523.40;1743601;80;20976;-71
2021/09/15 02:48:15;;;;;;;4.45;2.33;;;;;;;12.49;59.01;100524.51;1766010;80;21166;-71
2021/09/15 02:51:02;;;;;;;5.20;2.42;;;;;;;12.44;59.16;100527.53;1743136;82;21403;-71
2021/09/15 02:53:33;;;;;;;4.12;2.22;;;;;;;12.39;59.46;100523.61;1743001;82;21475;-71
2021/09/15 02:56:02;;;;;;;6.05;2.60;;;;;;;12.30;59.83;100527.38;1741781;80;20987;-71
2021/09/15 02:58:48;;;;;;;5.33;2.80;;;;;;;12.21;60.28;100536.09;1757015;80;22235;-71
2021/09/15 03:01:31;;;;;;;5.00;2.30;;;;;;;12.09;60.62;100537.61;1752945;80;21412;-70
2021/09/15 03:04:00;;;;;;;8.18;3.25;;;;;;;12.01;60.88;100542.22;1764131;80;20937;-70
2021/09/15 03:06:28;;;;;;;6.20;2.62;;;;;;;11.93;61.05;100540.20;1752775;80;21427;-70
2021/09/15 03:08:59;;;;;;;6.45;2.50;;;;;;;11.86;61.22;100540.81;1756526;80;21412;-70
2021/09/15 03:11:26;;;;;;;4.05;2.27;;;;;;;11.79;61.43;100544.44;1747259;80;21777;-71
2021/09/15 03:13:55;;;;;;;5.30;2.45;;;;;;;11.72;61.53;100533.50;1771858;80;20993;-70
2021/09/15 03:16:25;;;;;;;3.55;2.37;;;;;;;11.67;61.62;100533.50;1750558;80;21004;-70
2021/09/15 03:18:54;;;;;;;5.37;2.22;;;;;;;11.62;61.65;100538.34;1757794;80;20981;-70
2021/09/15 03:21:22;;;;;;;4.10;2.62;;;;;;;11.57;61.85;100544.00;1770106;79;21462;-70
2021/09/15 03:23:49;;;;;;;5.08;2.40;;;;;;;11.52;62.03;100544.03;1775490;80;22800;-70
2021/09/15 03:26:15;;;;;;;6.35;2.37;;;;;;;11.46;62.08;100540.89;1754893;80;20977;-71
2021/09/15 03:28:43;;;;;;;6.33;2.58;;;;;;;11.44;62.16;100545.48;1758439;79;21024;-71
2021/09/15 03:31:10;;;;;;;3.77;2.25;;;;;;;11.40;62.29;100545.37;1747637;80;20949;-71
2021/09/15 03:33:36;;;;;;;6.70;2.55;;;;;;;11.34;62.42;100551.14;1750264;80;20975;-72
2021/09/15 03:36:04;;;;;;;5.92;2.80;;;;;;;11.29;62.61;100553.78;1754677;80;21683;-71
2021/09/15 03:38:32;;;;;;;5.62;2.70;;;;;;;11.23;62.78;100551.16;1768449;80;20976;-72
2021/09/15 03:40:58;;;;;;;8.40;3.05;;;;;;;11.21;62.89;100548.28;1751250;80;21106;-72
2021/09/15 03:43:25;;;;;;;7.30;2.80;;;;;;;11.16;62.91;100552.59;1772314;80;21091;-71
2021/09/15 03:45:52;;;;;;;7.08;2.58;;;;;;;11.12;63.04;100555.14;1769536;80;20988;-71
2021/09/15 03:48:18;;;;;;;7.45;2.95;;;;;;;11.08;63.23;100561.12;1741759;80;21811;-71
2021/09/15 03:50:47;;;;;;;5.33;2.80;;;;;;;11.05;63.27;100561.38;1755854;80;21526;-71
2021/09/15 03:53:14;;;;;;;5.95;2.80;;;;;;;11.03;63.40;100569.08;1767267;80;20948;-71
2021/09/15 03:55:42;;;;;;;6.72;2.67;;;;;;;11.01;63.47;100573.16;1750143;80;21004;-74
2021/09/15 03:58:09;;;;;;;5.33;2.98;;;;;;;11.01;63.54;100573.65;1766661;80;21521;-73
2021/09/15 04:00:36;;;;;;;6.35;2.72;;;;;;;11.01;63.60;100574.97;1773969;80;21783;-72
2021/09/15 04:03:03;;;;;;;4.33;2.62;;;;;;;11.02;63.60;100573.52;1761648;80;21499;-75
2021/09/15 04:05:30;;;;;;;5.83;3.10;;;;;;;11.01;63.65;100577.13;1770923;80;20985;-73
2021/09/15 04:07:59;;;;;;;9.73;3.37;;;;;;;11.02;63.70;100578.81;1776488;80;21051;-70
2021/09/15 04:10:26;;;;;;;7.70;3.17;;;;;;;11.05;63.65;100586.97;1764750;80;20953;-71
2021/09/15 04:12:55;;;;;;;8.28;2.85;;;;;;;11.06;63.55;100587.33;1758791;80;20960;-69
2021/09/15 04:15:22;;;;;;;7.80;2.98;;;;;;;11.08;63.46;100589.36;1759967;80;21455;-71
2021/09/15 04:17:50;;;;;;;5.62;2.87;;;;;;;11.15;63.42;100593.22;1768928;80;21403;-73
2021/09/15 04:20:17;;;;;;;5.35;2.40;;;;;;;11.18;63.41;100587.68;1770252;80;21490;-69
2021/09/15 04:22:46;;;;;;;8.75;2.80;;;;;;;11.21;63.19;100589.27;1765000;80;20984;-70
2021/09/15 04:33:35;;;;;;;7.22;3.17;;;;;;;11.56;62.26;100596.55;1769524;80;20976;-69
2021/09/15 04:36:02;;;;;;;7.90;2.80;;;;;;;11.67;62.04;100598.33;1753568;80;21062;-69
2021/09/15 04:38:29;;;;;;;7.30;3.05;;;;;;;11.74;62.02;100604.82;1749800;80;22204;-70
2021/09/15 04:40:57;;;;;;;6.72;2.70;;;;;;;11.84;61.88;100599.17;1734217;80;20925;-69
2021/09/15 04:43:23;;;;;;;6.50;3.30;;;;;;;11.93;61.65;100608.17;1763658;80;20985;-69
2021/09/15 04:45:50;;;;;;;7.55;2.92;;;;;;;12.01;61.34;100602.62;1760444;80;20953;-70
2021/09/15 04:48:17;;;;;;;7.75;2.85;;;;;;;12.12;60.98;100609.67;1762163;80;20949;-71
2021/09/15 04:50:45;;;;;;;4.97;2.45;;;;;;;12.22;60.65;100617.70;1768161;80;22220;-69
2021/09/15 04:53:11;;;;;;;5.30;2.83;;;;;;;12.29;59.96;100618.89;1751402;80;21068;-68
2021/09/15 04:55:40;;;;;;;6.75;2.75;;;;;;;12.40;59.91;100623.30;1754793;80;20996;-68
2021/09/15 04:58:06;;;;;;;7.33;2.77;;;;;;;12.49;59.76;100618.56;1761006;80;20980;-71
2021/09/15 05:00:33;;;;;;;4.83;2.70;;;;;;;12.58;59.71;100624.41;1758549;80;20992;-71
2021/09/15 05:03:02;;;;;;;7.50;2.50;;;;;;;12.66;59.28;100628.59;1770644;80;22254;-71
2021/09/15 05:05:30;;;;;;;7.80;2.67;;;;;;;12.73;59.19;100627.08;1775936;80;20936;-70
2021/09/15 05:07:57;;;;;;;7.30;2.80;;;;;;;12.82;59.11;100617.52;1777255;80;21125;-70
2021/09/15 05:10:29;;;;;;;6.25;2.70;;;;;;;12.92;58.95;100625.04;1777527;80;20996;-70
2021/09/15 05:12:56;;;;;;;5.53;2.55;;;;;;;13.01;58.78;100624.25;1774800;80;21047;-70
2021/09/15 05:15:25;;;;;;;6.67;2.45;;;;;;;13.08;58.50;100625.91;1748473;80;21829;-71
2021/09/15 05:17:52;;;;;;;5.90;2.80;;;;;;;13.14;58.43;100623.58;1744340;82;20986;-70
2021/09/15 05:20:21;;;;;;;4.78;2.40;;;;;;;13.23;58.33;100627.77;1748236;80;21042;-70
2021/09/15 05:22:51;;;;;;;7.90;2.40;;;;;;;13.32;58.32;100630.47;1747551;82;21031;-69
2021/09/15 05:25:21;;;;;;;4.87;2.20;;;;;;;13.42;57.93;100630.50;1753451;80;20921;-69
2021/09/15 05:27:50;;;;;;;4.75;2.52;;;;;;;13.53;57.93;100632.22;1778106;79;20969;-69
2021/09/15 05:30:18;;;;;;;5.25;2.40;;;;;;;13.62;57.65;100637.56;1753696;80;21352;-69
2021/09/15 05:32:48;;;;;;;8.13;2.22;;;;;;;13.72;57.34;100629.63;1785931;80;21086;-70
2021/09/15 05:35:15;;;;;;;3.87;1.95;;;;;;;13.78;56.51;100634.38;1786386;80;21000;-69
2021/09/15 05:37:43;;;;;;;6.78;2.55;;;;;;;13.83;56.15;100633.98;1781225;80;20987;-70
2021/09/15 05:40:11;;;;;;;5.67;2.27;;;;;;;13.90;55.99;100634.63;1786382;80;21416;-70
2021/09/15 05:42:39;;;;;;;4.45;2.30;;;;;;;13.98;55.63;100642.72;1786288;80;20964;-69
2021/09/15 05:45:07;;;;;;;5.47;2.00;;;;;;;14.07;54.98;100635.75;1786357;80;20940;-70
2021/09/15 05:47:34;;;;;;;5.33;2.15;;;;;;;14.17;54.58;100642.41;1779201;79;20995;-70
2021/09/15 05:50:03;;;;;;;2.83;1.90;;;;;;;14.26;54.36;100648.22;1755323;80;21006;-70
2021/09/15 05:52:34;;;;;;;3.08;1.90;;;;;;;14.34;54.09;100639.06;1738491;80;21741;-70
2021/09/15 05:55:01;;;;;;;4.72;1.90;;;;;;;14.43;53.50;100642.70;1767839;80;21043;-69
2021/09/15 05:57:28;;;;;;;3.17;1.90;;;;;;;14.47;52.57;100644.96;1772699;80;20936;-71
2021/09/15 05:59:54;;;;;;;4.30;1.77;;;;;;;14.51;52.45;100646.38;1778295;80;21078;-68
2021/09/15 06:02:21;;;;;;;3.80;1.70;;;;;;;14.58;52.37;100647.99;1778891;80;21012;-70
2021/09/15 06:04:48;;;;;;;6.53;2.20;;;;;;;14.67;51.66;100655.59;1756080;80;21786;-70
2021/09/15 06:07:25;;;;;;;3.98;1.70;;;;;;;14.73;51.69;100653.21;1772606;80;20986;-69
2021/09/15 06:09:52;;;;;;;4.67;1.65;;;;;;;14.76;51.18;100652.91;1762152;80;20976;-70
2021/09/15 06:12:19;;;;;;;3.75;1.72;;;;;;;14.69;50.97;100653.65;1772674;80;21590;-70
2021/09/15 06:14:47;;;;;;;8.30;2.40;;;;;;;14.66;50.58;100660.06;1755234;81;20944;-72
2021/09/15 06:17:15;;;;;;;4.95;2.10;;;;;;;14.69;50.58;100661.63;1738490;80;21035;-69
2021/09/15 06:19:43;;;;;;;5.83;1.90;;;;;;;14.72;50.34;100663.99;1786301;80;21032;-69
2021/09/15 06:22:28;;;;;;;2.72;1.70;;;;;;;14.75;49.31;100662.38;1758447;80;21405;-69
2021/09/15 06:24:55;;;;;;;2.12;1.30;;;;;;;14.78;49.23;100665.61;1755337;81;21056;-72
2021/09/15 06:27:24;;;;;;;3.65;1.60;;;;;;;14.87;48.81;100664.76;1755471;80;21449;-69
2021/09/15 06:29:51;;;;;;;2.62;1.40;;;;;;;14.97;48.40;100669.22;1760811;80;22776;-70
2021/09/15 06:32:19;;;;;;;10.58;2.08;;;;;;;15.02;47.78;100665.13;1753506;80;20925;-68
2021/09/15 06:34:48;;;;;;;2.17;1.30;;;;;;;15.09;47.79;100672.06;1768759;80;21404;-68
2021/09/15 06:37:16;;;;;;;3.67;1.47;;;;;;;15.13;47.52;100668.95;1778620;80;21499;-67
2021/09/15 06:39:44;;;;;;;5.50;1.55;;;;;;;15.24;47.47;100669.77;1778467;80;21035;-68
2021/09/15 06:42:12;;;;;;;4.15;1.35;;;;;;;15.34;47.65;100674.07;1769844;80;21729;-70
2021/09/15 06:44:40;;;;;;;3.50;1.30;;;;;;;15.43;47.10;100675.86;1678114;80;20964;-70
2021/09/15 06:47:07;;;;;;;2.05;1.20;;;;;;;15.50;46.57;100684.11;1754298;80;20940;-70
2021/09/15 06:49:33;;;;;;;3.55;1.35;;;;;;;15.59;45.62;100689.05;1754125;80;21000;-72
2021/09/15 06:52:03;;;;;;;3.00;1.50;;;;;;;15.65;44.36;100689.34;1777694;80;21067;-70
2021/09/15 06:54:30;;;;;;;2.45;1.32;;;;;;;15.63;44.13;100683.34;1759250;80;21799;-71
2021/09/15 06:56:58;;;;;;;3.60;1.47;;;;;;;15.56;44.16;100684.87;1747772;82;20925;-71
2021/09/15 06:59:25;;;;;;;3.45;1.40;;;;;;;15.64;44.49;100683.68;1747745;82;20984;-71
2021/09/15 07:01:53;;;;;;;2.33;1.10;;;;;;;15.78;44.42;100684.17;1758491;80;20964;-71
2021/09/15 07:04:19;;;;;;;2.95;1.40;;;;;;;15.84;43.72;100679.09;1772504;80;20941;-71
2021/09/15 07:06:46;;;;;;;2.08;1.22;;;;;;;15.94;43.25;100682.55;1765049;80;22180;-71
2021/09/15 07:09:13;;;;;;;3.33;1.40;;;;;;;15.99;42.66;100680.26;1747550;82;21031;-72
2021/09/15 07:11:41;;;;;;;3.17;1.47;;;;;;;16.07;42.63;100682.18;1747604;82;20987;-71
2021/09/15 07:14:09;;;;;;;3.25;1.22;;;;;;;16.16;42.82;100678.62;1747586;82;20984;-72
2021/09/15 07:16:38;;;;;;;5.90;1.42;;;;;;;16.23;42.23;100687.70;1750938;80;20977;-71
2021/09/15 07:19:06;;;;;;;5.42;1.27;;;;;;;16.32;41.81;100683.29;1755797;80;20996;-71
2021/09/15 07:21:34;;;;;;;2.47;1.22;;;;;;;16.41;40.87;100685.05;1747549;82;21460;-71
2021/09/15 07:24:01;;;;;;;3.10;1.40;;;;;;;16.47;40.70;100676.92;1753432;80;21015;-71
2021/09/15 07:26:28;;;;;;;5.80;1.40;;;;;;;16.57;40.74;100683.84;1747564;82;20937;-71
2021/09/15 07:28:55;;;;;;;3.72;1.35;;;;;;;16.61;41.04;100683.06;1747553;80;21031;-71
2021/09/15 07:31:22;;;;;;;3.00;1.10;;;;;;;16.66;39.89;100690.59;1751877;80;21818;-71
2021/09/15 07:33:48;;;;;;;3.80;1.20;;;;;;;16.63;39.21;100686.91;1744444;80;20949;-72
2021/09/15 07:36:15;;;;;;;2.95;1.30;;;;;;;16.66;39.34;100685.26;1751242;80;20985;-71
2021/09/15 07:38:41;;;;;;;3.25;1.20;;;;;;;16.75;39.37;100688.37;1744377;82;21024;-72
2021/09/15 07:41:08;;;;;;;3.80;1.40;;;;;;;16.85;39.76;100692.62;1744459;82;20985;-72
2021/09/15 07:43:34;;;;;;;2.52;1.42;;;;;;;16.93;37.94;100693.19;1744411;80;21789;-72
2021/09/15 07:46:01;;;;;;;5.33;1.50;;;;;;;16.80;38.35;100693.59;1745187;80;20945;-72
2021/09/15 07:48:27;;;;;;;3.90;1.45;;;;;;;16.78;39.06;100696.05;1744441;80;20934;-72
2021/09/15 07:50:55;;;;;;;2.95;1.50;;;;;;;16.83;39.02;100693.28;1761314;80;20993;-72
2021/09/15 07:53:21;;;;;;;3.87;1.47;;;;;;;16.94;39.43;100688.69;1762322;80;21012;-72
2021/09/15 07:55:49;;;;;;;4.30;1.57;;;;;;;17.00;38.67;100689.41;1747443;80;21769;-73
2021/09/15 07:58:15;;;;;;;3.58;1.55;;;;;;;16.96;38.86;100690.20;1765953;80;20960;-72
2021/09/15 08:00:42;;;;;;;5.70;1.70;;;;;;;16.99;39.83;100690.41;1756672;80;21077;-73
2021/09/15 08:03:08;;;;;;;5.33;1.75;;;;;;;17.02;38.76;100688.26;1756897;79;21374;-72
2021/09/15 08:05:35;;;;;;;4.65;2.00;;;;;;;17.07;38.96;100683.77;1756642;80;21028;-71
2021/09/15 08:08:02;;;;;;;5.25;1.90;;;;;;;17.10;38.42;100689.66;1744465;82;22250;-73
2021/09/15 08:10:30;;;;;;;4.85;1.80;;;;;;;17.07;38.96;100691.78;1754798;80;20997;-71
2021/09/15 08:12:57;;;;;;;6.28;1.90;;;;;;;17.18;39.23;100683.54;1753047;80;20937;-73
2021/09/15 08:15:23;;;;;;;5.78;2.05;;;;;;;17.29;39.46;100681.10;1744344;82;21036;-72
2021/09/15 08:17:51;;;;;;;4.45;1.85;;;;;;;17.45;39.25;100675.83;1744685;82;20945;-72
2021/09/15 08:20:18;;;;;;;5.78;2.12;;;;;;;17.59;38.89;100673.08;1744381;82;21839;-71
2021/09/15 08:22:45;;;;;;;3.25;1.80;;;;;;;17.67;39.07;100673.96;1764416;80;20964;-72
2021/09/15 08:25:12;;;;;;;9.73;2.33;;;;;;;17.80;39.10;100675.38;1770227;80;21193;-73
2021/09/15 08:27:38;;;;;;;3.22;2.10;;;;;;;17.90;38.91;100669.39;1744196;82;21585;-73
2021/09/15 08:30:08;;;;;;;5.03;1.85;;;;;;;17.98;38.81;100670.76;1771259;80;20959;-72
2021/09/15 08:32:35;;;;;;;3.67;1.67;;;;;;;18.05;38.69;100673.12;1775083;80;21723;-71
2021/09/15 08:35:02;;;;;;;5.40;1.95;;;;;;;18.11;38.52;100676.47;1774002;80;21000;-73
2021/09/15 08:37:34;;;;;;;5.45;1.52;;;;;;;18.12;38.15;100667.44;1767739;80;21506;-70
2021/09/15 08:40:01;;;;;;;4.72;1.50;;;;;;;18.03;38.70;100662.57;1759475;80;21016;-71
2021/09/15 08:42:27;;;;;;;4.37;1.60;;;;;;;18.11;37.36;100674.30;1743452;81;21098;-70
2021/09/15 08:44:54;;;;;;;3.67;1.50;;;;;;;17.95;37.65;100676.41;1747915;80;21491;-71
2021/09/15 08:47:22;;;;;;;3.08;1.40;;;;;;;17.89;38.28;100671.23;1743125;81;20980;-74
2021/09/15 08:49:49;;;;;;;5.97;1.47;;;;;;;17.93;38.22;100672.56;1743107;82;21076;-74
2021/09/15 08:52:16;;;;;;;3.92;1.60;;;;;;;17.99;38.15;100665.75;1749622;79;21267;-73
2021/09/15 08:54:43;;;;;;;3.55;1.50;;;;;;;18.04;37.73;100664.74;1743207;82;20999;-73
2021/09/15 08:57:09;;;;;;;3.45;1.47;;;;;;;18.07;38.00;100668.45;1743375;82;21747;-73
2021/09/15 08:59:37;;;;;;;3.17;1.70;;;;;;;18.09;38.11;100664.27;1743146;82;21000;-72
2021/09/15 09:02:07;;;;;;;5.28;1.70;;;;;;;18.20;38.38;100659.45;1764884;80;21043;-73
2021/09/15 09:05:04;;;;;;;1.92;1.35;;;;;;;18.41;38.64;100650.11;1758513;80;22097;-72
2021/09/15 09:07:30;;;;;;;3.05;1.40;;;;;;;18.63;37.39;100660.68;1757857;81;21277;-72
2021/09/15 09:10:06;;;;;;;4.35;1.47;;;;;;;18.67;37.40;100654.84;1758559;81;22587;-73
2021/09/15 09:12:31;;;;;;;4.08;1.72;;;;;;;18.75;37.24;100658.03;1754842;81;21489;-73
2021/09/15 09:15:25;;;;;;;3.83;1.57;;;;;;;18.81;37.36;100653.33;1755887;80;21013;-72
2021/09/15 09:18:00;;;;;;;4.40;1.65;;;;;;;18.84;37.07;100652.50;1744238;80;20985;-71
2021/09/15 09:20:32;;;;;;;4.05;1.50;;;;;;;18.88;37.60;100653.83;1743519;81;21561;-71
2021/09/15 09:23:16;;;;;;;8.23;1.50;;;;;;;18.94;37.06;100652.83;1762129;80;22621;-72
2021/09/15 09:25:46;;;;;;;4.20;1.62;;;;;;;18.92;36.98;100653.51;1773811;80;21507;-70
2021/09/15 09:28:32;;;;;;;5.03;2.00;;;;;;;19.05;37.71;100656.49;1774082;80;21008;-71
2021/09/15 09:31:07;;;;;;;4.42;1.62;;;;;;;19.20;36.60;100648.58;1753581;80;21031;-71
2021/09/15 09:33:35;;;;;;;4.25;1.50;;;;;;;19.22;36.55;100647.94;1751379;80;20972;-70
2021/09/15 09:36:09;;;;;;;3.17;1.60;;;;;;;19.33;36.69;100641.70;1762945;80;21730;-70
2021/09/15 09:38:43;;;;;;;3.72;1.35;;;;;;;19.50;35.84;100645.17;1757571;81;20976;-70
2021/09/15 09:41:19;;;;;;;6.00;1.47;;;;;;;19.53;36.40;100630.08;1757668;81;21374;-70
2021/09/15 09:43:50;;;;;;;5.37;1.37;;;;;;;19.73;36.07;100627.84;1762614;80;20980;-70
2021/09/15 09:46:21;;;;;;;5.08;1.60;;;;;;;19.93;36.27;100629.08;1787881;80;20932;-71
2021/09/15 09:48:54;;;;;;;3.65;1.57;;;;;;;20.15;35.79;100623.91;1761909;80;21737;-70
2021/09/15 09:51:37;;;;;;;4.70;2.22;;;;;;;20.36;35.58;100613.35;1758613;80;21043;-70
2021/09/15 09:54:27;;;;;;;4.22;1.60;;;;;;;20.60;35.50;100609.68;1757876;81;20987;-70
2021/09/15 09:56:58;;;;;;;5.75;1.60;;;;;;;20.79;35.35;100612.36;1757862;81;28701;-70
2021/09/15 09:59:27;;;;;;;2.30;1.50;;;;;;;21.02;34.62;100598.35;1778894;80;20991;-70
2021/09/15 10:01:59;;;;;;;7.65;1.72;;;;;;;21.05;35.39;100599.34;1788986;80;22254;-70
2021/09/15 10:04:28;;;;;;;5.65;1.30;;;;;;;21.28;35.13;100603.82;1788958;80;20963;-70
2021/09/15 10:06:55;;;;;;;2.77;1.30;;;;;;;21.55;34.19;100589.72;1788862;80;21035;-71
2021/09/15 10:09:23;;;;;;;3.37;1.50;;;;;;;21.75;34.29;100591.30;1770673;80;21028;-71
2021/09/15 10:11:50;;;;;;;3.55;1.57;;;;;;;22.02;33.93;100592.42;1757789;78;20948;-71
2021/09/15 10:14:17;;;;;;;3.52;1.22;;;;;;;22.22;32.73;100588.11;1757978;81;21886;-70
2021/09/15 10:16:51;;;;;;;6.65;1.42;;;;;;;22.16;32.82;100598.80;1757731;81;21023;-70
2021/09/15 10:19:23;;;;;;;3.83;1.27;;;;;;;22.09;33.10;100586.61;1757840;81;20995;-70
2021/09/15 10:21:59;;;;;;;3.50;1.15;;;;;;;22.17;32.54;100595.91;1776078;80;21094;-70
2021/09/15 10:25:00;;;;;;;2.87;1.30;;;;;;;22.15;32.68;100591.23;1788432;80;20984;-70
2021/09/15 10:27:29;;;;;;;4.60;1.27;;;;;;;22.13;33.18;100585.73;1789107;80;21800;-69
2021/09/15 10:30:11;;;;;;;4.40;1.37;;;;;;;22.26;33.55;100587.20;1760773;80;20928;-69
2021/09/15 10:32:41;;;;;;;3.15;1.30;;;;;;;22.50;33.49;100583.28;1756967;80;21012;-69
2021/09/15 10:35:08;;;;;;;4.28;1.27;;;;;;;22.53;32.51;100579.68;1740908;82;21028;-70
2021/09/15 10:37:44;;;;;;;4.70;1.42;;;;;;;22.33;33.04;100581.88;1759623;80;21063;-71
2021/09/15 10:40:11;;;;;;;2.98;1.50;;;;;;;22.33;33.53;100580.02;1767535;80;22201;-71
2021/09/15 10:42:46;;;;;;;5.58;1.22;;;;;;;22.42;33.56;100572.66;1772306;80;21055;-70
2021/09/15 10:45:22;;;;;;;1.70;1.10;;;;;;;22.39;34.70;100568.98;1758780;80;21538;-70
2021/09/15 10:48:05;;;;;;;2.80;1.20;;;;;;;22.65;34.25;100572.41;1749377;80;21015;-70
2021/09/15 10:50:42;;;;;;;2.00;1.10;;;;;;;22.91;33.78;100563.73;1747510;80;21027;-71
2021/09/15 10:53:13;;;;;;;3.77;1.22;;;;;;;23.18;33.26;100562.86;1758828;80;21017;-69
2021/09/15 10:55:50;;;;;;;3.20;1.40;;;;;;;23.24;32.44;100563.38;1774069;80;21000;-69
2021/09/15 10:58:24;;;;;;;3.45;1.20;;;;;;;23.34;32.04;100567.89;1758355;80;21036;-70
2021/09/15 11:00:58;;;;;;;2.35;1.30;;;;;;;23.44;31.53;100567.52;1731131;80;21019;-70
2021/09/15 11:03:33;;;;;;;4.30;1.20;;;;;;;23.46;30.84;100561.95;1773893;80;36401;-69
2021/09/15 11:06:17;;;;;;;4.47;1.32;;;;;;;23.37;30.54;100562.12;1773918;80;22186;-70
2021/09/15 11:08:49;;;;;;;3.37;1.30;;;;;;;23.23;31.20;100559.55;1773932;80;21491;-70
2021/09/15 11:11:27;;;;;;;4.30;1.30;;;;;;;23.18;31.26;100561.50;1748169;80;21008;-70
2021/09/15 11:14:04;;;;;;;4.55;1.05;;;;;;;23.20;30.98;100564.83;1743188;79;21069;-71
2021/09/15 11:16:38;;;;;;;2.75;1.40;;;;;;;23.34;31.18;100561.15;1749416;80;21015;-70
2021/09/15 11:19:16;;;;;;;6.12;1.40;;;;;;;23.65;30.49;100559.88;1773985;80;20988;-70
2021/09/15 11:21:53;;;;;;;3.45;1.40;;;;;;;23.71;30.37;100552.30;1763428;80;21475;-69
2021/09/15 11:24:24;;;;;;;2.70;1.50;;;;;;;23.81;29.60;100562.19;1744674;82;20940;-69
2021/09/15 11:26:55;;;;;;;3.37;1.60;;;;;;;23.77;29.53;100552.84;1744385;82;21020;-69
2021/09/15 11:29:44;;;;;;;3.17;1.30;;;;;;;23.78;29.45;100555.86;1724329;82;20984;-69
2021/09/15 11:32:13;;;;;;;5.03;1.60;;;;;;;23.90;28.58;100551.52;1751302;80;21803;-70
2021/09/15 11:34:48;;;;;;;3.20;1.20;;;;;;;23.86;26.51;100546.75;1748388;80;21424;-69
2021/09/15 11:37:21;;;;;;;4.83;1.60;;;;;;;23.79;27.02;100548.08;1747549;82;20969;-70
2021/09/15 11:40:00;;;;;;;4.20;1.52;;;;;;;23.90;25.15;100545.30;1747726;82;21392;-70
2021/09/15 11:42:32;;;;;;;4.60;1.40;;;;;;;23.91;25.29;100545.09;1755858;80;20961;-70
2021/09/15 11:45:19;;;;;;;4.15;1.42;;;;;;;24.12;25.68;100544.59;1747608;82;22136;-70